createdAt,value
2022-10-07T00:00:29.369Z,12.66
2022-10-07T00:02:55.933Z,12.39
2022-10-07T00:05:22.512Z,12.59
2022-10-07T00:07:49.048Z,12.48
2022-10-07T00:10:15.690Z,12.69
2022-10-07T00:12:42.409Z,12.63
2022-10-07T00:15:09.577Z,12.74
2022-10-07T00:17:36.788Z,12.55
2022-10-07T00:20:03.604Z,12.53
2022-10-07T00:22:31.175Z,12.64
2022-10-07T00:24:57.748Z,12.52
2022-10-07T00:27:24.366Z,12.42
2022-10-07T00:29:50.969Z,12.52
2022-10-07T00:32:17.521Z,12.39
2022-10-07T00:34:44.101Z,12.41
2022-10-07T00:37:10.606Z,12.36
2022-10-07T00:39:37.363Z,12.70
2022-10-07T00:42:03.957Z,12.67
2022-10-07T00:46:59.345Z,12.60
2022-10-07T00:49:27.395Z,12.50
2022-10-07T00:51:53.969Z,12.32
2022-10-07T00:54:20.939Z,12.49
2022-10-07T00:56:49.596Z,12.37
2022-10-07T00:59:16.934Z,12.17
2022-10-07T01:01:43.497Z,12.20
2022-10-07T01:04:11.400Z,12.26
2022-10-07T01:06:39.270Z,12.43
2022-10-07T01:09:07.703Z,12.26
2022-10-07T01:12:00.145Z,12.30
2022-10-07T01:14:35.912Z,12.49
2022-10-07T01:17:11.268Z,12.33
2022-10-07T01:20:16.884Z,12.24
2022-10-07T01:22:52.158Z,12.42
2022-10-07T01:25:39.103Z,12.30
2022-10-07T01:28:08.324Z,12.15
2022-10-07T01:30:37.542Z,11.96
2022-10-07T01:33:05.325Z,12.05
2022-10-07T01:35:35.162Z,11.93
2022-10-07T01:38:07.156Z,12.19
2022-10-07T01:40:37.383Z,12.06
2022-10-07T01:43:04.342Z,11.97
2022-10-07T01:45:31.194Z,11.99
2022-10-07T01:47:59.067Z,12.09
2022-10-07T01:50:28.016Z,12.07
2022-10-07T01:53:06.485Z,11.94
2022-10-07T01:55:45.404Z,12.20
2022-10-07T01:58:27.044Z,11.88
2022-10-07T02:01:27.169Z,12.07
2022-10-07T02:04:35.112Z,12.36
2022-10-07T02:07:15.001Z,11.99
2022-10-07T02:09:49.497Z,11.93
2022-10-07T02:12:40.237Z,11.93
2022-10-07T02:15:17.113Z,11.93
2022-10-07T02:17:48.926Z,12.17
2022-10-07T02:20:16.521Z,11.91
2022-10-07T02:22:44.714Z,12.00
2022-10-07T02:25:12.422Z,11.85
2022-10-07T02:27:39.400Z,11.83
2022-10-07T02:30:10.216Z,11.97
2022-10-07T02:32:40.869Z,12.12
2022-10-07T02:35:16.360Z,11.90
2022-10-07T02:37:44.010Z,11.99
2022-10-07T02:40:12.372Z,11.89
2022-10-07T02:42:59.077Z,11.71
2022-10-07T02:45:27.084Z,12.03
2022-10-07T02:48:04.268Z,12.13
2022-10-07T02:50:37.749Z,11.71
2022-10-07T02:53:05.347Z,11.46
2022-10-07T02:55:32.184Z,11.66
2022-10-07T02:58:01.026Z,11.75
2022-10-07T03:00:29.688Z,11.75
2022-10-07T03:02:58.563Z,11.74
2022-10-07T03:05:26.179Z,11.65
2022-10-07T03:07:56.132Z,11.59
2022-10-07T03:10:22.763Z,11.67
2022-10-07T03:12:50.252Z,11.62
2022-10-07T03:15:16.859Z,11.48
2022-10-07T03:17:43.639Z,11.49
2022-10-07T03:20:10.349Z,11.39
2022-10-07T03:22:36.856Z,11.48
2022-10-07T03:25:03.799Z,11.55
2022-10-07T03:27:30.267Z,11.66
2022-10-07T03:29:58.552Z,11.60
2022-10-07T03:32:27.250Z,11.49
2022-10-07T03:34:54.878Z,11.35
2022-10-07T03:37:22.520Z,11.31
2022-10-07T03:39:49.192Z,11.71
2022-10-07T03:42:16.258Z,11.68
2022-10-07T03:44:42.757Z,11.58
2022-10-07T03:47:10.932Z,11.73
2022-10-07T03:49:39.037Z,11.36
2022-10-07T03:52:06.319Z,11.66
2022-10-07T03:54:33.756Z,11.48
2022-10-07T03:57:00.884Z,11.35
2022-10-07T03:59:27.621Z,11.63
2022-10-07T04:01:54.293Z,11.41
2022-10-07T04:04:20.766Z,11.33
2022-10-07T04:06:47.205Z,11.62
2022-10-07T04:09:14.178Z,11.50
2022-10-07T04:11:41.732Z,11.49
2022-10-07T04:14:08.325Z,11.57
2022-10-07T04:16:37.999Z,11.67
2022-10-07T04:19:06.008Z,11.43
2022-10-07T04:21:32.572Z,11.53
2022-10-07T04:23:59.202Z,11.83
2022-10-07T04:26:25.682Z,11.72
2022-10-07T04:28:52.141Z,11.76
2022-10-07T04:31:18.684Z,11.73
2022-10-07T04:33:46.397Z,11.79
2022-10-07T04:36:12.953Z,11.82
2022-10-07T04:38:39.791Z,11.60
2022-10-07T04:41:07.462Z,11.59
2022-10-07T04:43:34.448Z,11.82
2022-10-07T04:46:06.409Z,11.77
2022-10-07T04:48:33.090Z,11.64
2022-10-07T04:51:04.192Z,11.65
2022-10-07T04:53:31.899Z,11.77
2022-10-07T04:55:59.298Z,11.70
2022-10-07T04:58:27.206Z,11.56
2022-10-07T05:00:54.722Z,11.54
2022-10-07T05:03:22.436Z,11.95
2022-10-07T05:05:54.790Z,11.80
2022-10-07T05:08:24.762Z,11.70
2022-10-07T05:10:56.099Z,11.27
2022-10-07T05:13:24.371Z,11.40
2022-10-07T05:15:53.083Z,11.56
2022-10-07T05:18:20.215Z,11.57
2022-10-07T05:20:48.303Z,11.50
2022-10-07T05:23:16.027Z,11.44
2022-10-07T05:25:43.939Z,11.49
2022-10-07T05:28:15.478Z,11.65
2022-10-07T05:30:42.233Z,11.53
2022-10-07T05:33:10.044Z,11.57
2022-10-07T05:35:36.521Z,11.61
2022-10-07T05:38:03.035Z,11.64
2022-10-07T05:40:29.485Z,11.74
2022-10-07T05:42:55.954Z,11.61
2022-10-07T05:45:22.508Z,11.84
2022-10-07T05:47:49.086Z,11.53
2022-10-07T05:50:15.812Z,11.43
2022-10-07T05:52:45.196Z,11.28
2022-10-07T05:55:12.064Z,11.35
2022-10-07T05:57:39.235Z,11.33
2022-10-07T06:00:07.208Z,11.57
2022-10-07T06:02:33.909Z,11.63
2022-10-07T06:05:01.181Z,11.50
2022-10-07T06:07:29.696Z,11.37
2022-10-07T06:10:14.912Z,11.60
2022-10-07T06:12:59.901Z,11.56
2022-10-07T06:15:26.436Z,11.74
2022-10-07T06:17:52.893Z,11.41
2022-10-07T06:20:19.366Z,11.43
2022-10-07T06:22:45.844Z,11.75
2022-10-07T06:25:12.296Z,11.53
2022-10-07T06:27:38.753Z,11.55
2022-10-07T06:30:05.805Z,11.41
2022-10-07T06:32:32.754Z,11.85
2022-10-07T06:34:59.220Z,11.91
2022-10-07T06:37:25.821Z,11.77
2022-10-07T06:39:55.250Z,11.55
2022-10-07T06:42:23.916Z,11.85
2022-10-07T06:44:53.745Z,11.70
2022-10-07T06:47:21.095Z,11.79
2022-10-07T06:49:47.644Z,11.63
2022-10-07T06:52:14.131Z,11.91
2022-10-07T06:54:40.591Z,12.00
2022-10-07T06:57:26.261Z,11.89
2022-10-07T06:59:55.037Z,11.73
2022-10-07T07:02:21.546Z,12.37
2022-10-07T07:04:48.102Z,12.60
2022-10-07T07:07:14.613Z,12.24
2022-10-07T07:09:41.070Z,12.01
2022-10-07T07:12:07.498Z,12.16
2022-10-07T07:14:35.785Z,12.38
2022-10-07T07:17:02.352Z,12.47
2022-10-07T07:19:28.932Z,12.53
2022-10-07T07:21:55.479Z,12.43
2022-10-07T07:24:21.964Z,12.39
2022-10-07T07:26:48.557Z,12.71
2022-10-07T07:29:16.494Z,12.82
2022-10-07T07:31:43.099Z,12.92
2022-10-07T07:34:11.937Z,12.88
2022-10-07T07:36:42.806Z,13.14
2022-10-07T07:39:11.400Z,13.04
2022-10-07T07:41:41.303Z,13.30
2022-10-07T07:44:11.189Z,13.37
2022-10-07T07:46:41.848Z,13.66
2022-10-07T07:49:10.509Z,13.68
2022-10-07T07:51:37.637Z,13.80
2022-10-07T07:54:04.586Z,13.94
2022-10-07T07:56:33.880Z,14.22
2022-10-07T07:59:01.230Z,14.24
2022-10-07T08:01:32.012Z,13.98
2022-10-07T08:03:59.557Z,14.03
2022-10-07T08:06:28.009Z,14.32
2022-10-07T08:08:57.393Z,14.73
2022-10-07T08:11:24.389Z,14.76
2022-10-07T08:13:51.632Z,15.16
2022-10-07T08:16:20.325Z,15.19
2022-10-07T08:18:48.740Z,15.20
2022-10-07T08:21:18.397Z,15.18
2022-10-07T08:23:45.027Z,15.47
2022-10-07T08:26:11.490Z,15.74
2022-10-07T08:28:39.150Z,15.28
2022-10-07T08:31:08.237Z,15.51
2022-10-07T08:33:36.872Z,15.59
2022-10-07T08:36:05.238Z,15.38
2022-10-07T08:38:33.057Z,15.11
2022-10-07T08:41:32.086Z,15.51
2022-10-07T08:44:01.098Z,15.02
2022-10-07T08:46:31.317Z,14.91
2022-10-07T08:49:04.722Z,14.91
2022-10-07T08:51:34.284Z,15.34
2022-10-07T08:54:00.713Z,15.59
2022-10-07T08:56:29.301Z,15.56
2022-10-07T08:59:16.533Z,16.13
2022-10-07T09:01:54.753Z,16.15
2022-10-07T09:04:42.537Z,16.03
2022-10-07T09:07:13.041Z,16.66
2022-10-07T09:09:44.267Z,16.57
2022-10-07T09:12:17.450Z,16.29
2022-10-07T09:14:47.026Z,15.81
2022-10-07T09:17:34.995Z,16.10
2022-10-07T09:20:19.001Z,16.85
2022-10-07T09:22:57.204Z,17.26
2022-10-07T09:25:25.716Z,16.90
2022-10-07T09:27:54.435Z,16.62
2022-10-07T09:30:22.885Z,16.87
2022-10-07T09:32:51.328Z,16.93
2022-10-07T09:35:23.736Z,16.62
2022-10-07T09:38:10.410Z,17.29
2022-10-07T09:41:02.461Z,16.95
2022-10-07T09:43:30.299Z,16.97
2022-10-07T09:45:57.463Z,16.77
2022-10-07T09:48:26.324Z,17.13
2022-10-07T09:51:11.980Z,16.86
2022-10-07T09:53:54.784Z,16.98
2022-10-07T09:56:35.198Z,17.07
2022-10-07T09:59:16.824Z,17.43
2022-10-07T10:01:50.365Z,17.53
2022-10-07T10:04:22.549Z,18.00
2022-10-07T10:06:50.401Z,18.06
2022-10-07T10:09:22.067Z,18.51
2022-10-07T10:12:12.681Z,17.89
2022-10-07T10:14:55.273Z,17.76
2022-10-07T10:17:21.683Z,18.12
2022-10-07T10:19:48.247Z,18.09
2022-10-07T10:22:30.041Z,17.80
2022-10-07T10:25:15.662Z,18.13
2022-10-07T10:27:59.960Z,18.85
2022-10-07T10:30:26.883Z,19.29
2022-10-07T10:33:04.575Z,19.47
2022-10-07T10:36:06.091Z,19.65
2022-10-07T10:38:51.285Z,19.04
2022-10-07T10:41:26.588Z,19.41
2022-10-07T10:43:59.081Z,19.62
2022-10-07T10:46:43.297Z,19.32
2022-10-07T10:49:20.862Z,19.03
2022-10-07T10:52:08.633Z,18.80
2022-10-07T10:54:52.645Z,18.81
2022-10-07T10:57:35.120Z,19.35
2022-10-07T11:00:08.320Z,19.36
2022-10-07T11:03:12.365Z,19.46
2022-10-07T11:05:40.404Z,19.63
2022-10-07T11:08:17.416Z,19.29
2022-10-07T11:10:51.732Z,19.53
2022-10-07T11:13:24.321Z,18.99
2022-10-07T11:15:57.081Z,18.81
2022-10-07T11:18:39.439Z,19.07
2022-10-07T11:21:10.678Z,18.96
2022-10-07T11:23:46.396Z,19.04
2022-10-07T11:26:24.091Z,18.48
2022-10-07T11:28:51.228Z,18.17
2022-10-07T11:31:37.793Z,18.38
2022-10-07T11:34:14.068Z,18.26
2022-10-07T11:36:52.808Z,18.54
2022-10-07T11:39:19.361Z,18.85
2022-10-07T11:42:09.443Z,18.76
2022-10-07T11:44:52.173Z,18.55
2022-10-07T11:47:25.941Z,18.36
2022-10-07T11:50:09.189Z,18.02
2022-10-07T11:52:41.272Z,18.15
2022-10-07T11:55:10.368Z,18.44
2022-10-07T11:57:38.788Z,19.80
2022-10-07T12:00:22.451Z,20.46
2022-10-07T12:02:49.615Z,19.87
2022-10-07T12:05:36.471Z,19.91
2022-10-07T12:08:43.449Z,20.04
2022-10-07T12:11:12.958Z,20.38
2022-10-07T12:13:40.709Z,19.61
2022-10-07T12:16:30.283Z,18.63
2022-10-07T12:19:10.466Z,19.12
2022-10-07T12:22:02.993Z,19.03
2022-10-07T12:24:31.744Z,19.09
2022-10-07T12:27:14.637Z,19.31
2022-10-07T12:29:49.155Z,20.20
2022-10-07T12:32:42.537Z,19.52
2022-10-07T12:35:36.967Z,19.76
2022-10-07T12:38:14.315Z,19.64
2022-10-07T12:40:43.263Z,19.80
2022-10-07T12:43:34.451Z,20.11
2022-10-07T12:46:05.231Z,20.31
2022-10-07T12:48:37.590Z,19.76
2022-10-07T12:51:05.914Z,19.31
2022-10-07T12:53:41.675Z,19.70
2022-10-07T12:56:09.040Z,19.19
2022-10-07T12:59:00.297Z,19.07
2022-10-07T13:01:48.445Z,19.35
2022-10-07T13:04:16.662Z,19.68
2022-10-07T13:06:55.323Z,19.37
2022-10-07T13:09:51.423Z,19.49
2022-10-07T13:12:46.932Z,19.69
2022-10-07T13:15:28.772Z,19.27
2022-10-07T13:18:31.078Z,19.22
2022-10-07T13:21:06.512Z,19.50
2022-10-07T13:23:34.123Z,20.37
2022-10-07T13:26:03.495Z,19.61
2022-10-07T13:28:47.771Z,19.42
2022-10-07T13:31:21.089Z,19.78
2022-10-07T13:33:48.699Z,19.59
2022-10-07T13:36:18.123Z,19.79
2022-10-07T13:38:46.361Z,19.72
2022-10-07T13:41:22.101Z,19.88
2022-10-07T13:43:54.174Z,20.19
2022-10-07T13:46:23.839Z,19.29
2022-10-07T13:48:50.945Z,19.57
2022-10-07T13:51:32.593Z,20.00
2022-10-07T13:54:01.063Z,20.07
2022-10-07T13:56:36.023Z,19.63
2022-10-07T13:59:02.801Z,19.80
2022-10-07T14:01:30.872Z,19.94
2022-10-07T14:04:19.986Z,19.74
2022-10-07T14:06:53.749Z,19.37
2022-10-07T14:09:47.959Z,19.12
2022-10-07T14:12:38.674Z,19.74
2022-10-07T14:15:13.768Z,19.59
2022-10-07T14:17:47.534Z,19.04
2022-10-07T14:20:43.824Z,19.32
2022-10-07T14:23:31.076Z,19.56
2022-10-07T14:26:04.203Z,19.09
2022-10-07T14:28:32.826Z,18.57
2022-10-07T14:31:28.437Z,18.57
2022-10-07T14:34:35.657Z,18.31
2022-10-07T14:37:09.142Z,18.97
2022-10-07T14:39:35.629Z,18.73
2022-10-07T14:42:03.484Z,19.34
2022-10-07T14:44:30.204Z,18.29
2022-10-07T14:47:24.801Z,19.10
2022-10-07T14:49:55.153Z,19.04
2022-10-07T14:52:43.528Z,18.75
2022-10-07T14:55:32.592Z,18.74
2022-10-07T14:57:59.034Z,18.59
2022-10-07T15:00:28.455Z,18.67
2022-10-07T15:02:56.878Z,18.62
2022-10-07T15:05:24.029Z,19.10
2022-10-07T15:07:51.211Z,18.46
2022-10-07T15:10:23.238Z,18.58
2022-10-07T15:12:50.156Z,18.42
2022-10-07T15:15:17.017Z,19.01
2022-10-07T15:17:44.384Z,18.78
2022-10-07T15:20:14.023Z,18.53
2022-10-07T15:22:40.890Z,18.37
2022-10-07T15:25:09.558Z,18.76
2022-10-07T15:27:36.502Z,18.32
2022-10-07T15:30:03.204Z,18.45
2022-10-07T15:32:30.219Z,18.43
2022-10-07T15:34:58.140Z,18.53
2022-10-07T15:37:27.465Z,18.63
2022-10-07T15:39:54.485Z,19.04
2022-10-07T15:42:23.804Z,18.55
2022-10-07T15:44:50.476Z,18.57
2022-10-07T15:47:17.122Z,18.35
2022-10-07T15:49:43.895Z,18.63
2022-10-07T15:52:12.137Z,18.37
2022-10-07T15:54:39.005Z,18.24
2022-10-07T15:57:05.745Z,18.43
2022-10-07T15:59:32.261Z,17.94
2022-10-07T16:01:58.802Z,18.24
2022-10-07T16:04:25.709Z,18.24
2022-10-07T16:06:52.297Z,17.94
2022-10-07T16:09:20.012Z,18.16
2022-10-07T16:11:47.221Z,18.45
2022-10-07T16:14:14.129Z,18.41
2022-10-07T16:16:41.247Z,18.25
2022-10-07T16:19:08.082Z,18.28
2022-10-07T16:21:36.870Z,18.03
2022-10-07T16:24:17.258Z,18.07
2022-10-07T16:26:44.627Z,18.10
2022-10-07T16:29:36.536Z,18.30
2022-10-07T16:32:03.918Z,18.09
2022-10-07T16:34:30.450Z,18.01
2022-10-07T16:36:57.938Z,17.83
2022-10-07T16:39:24.805Z,17.84
2022-10-07T16:41:52.382Z,17.94
2022-10-07T16:44:19.439Z,18.02
2022-10-07T16:46:46.186Z,17.82
2022-10-07T16:49:15.291Z,17.91
2022-10-07T16:51:41.971Z,18.10
2022-10-07T16:54:13.391Z,17.75
2022-10-07T16:56:41.617Z,17.92
2022-10-07T16:59:10.154Z,17.96
2022-10-07T17:01:39.277Z,18.08
2022-10-07T17:04:06.071Z,18.13
2022-10-07T17:06:33.216Z,18.08
2022-10-07T17:09:04.216Z,18.18
2022-10-07T17:11:33.328Z,18.46
2022-10-07T17:14:15.512Z,18.09
2022-10-07T17:16:47.449Z,17.91
2022-10-07T17:19:22.041Z,17.90
2022-10-07T17:21:49.164Z,18.06
2022-10-07T17:24:16.794Z,18.08
2022-10-07T17:26:44.697Z,18.07
2022-10-07T17:29:13.204Z,17.92
2022-10-07T17:31:43.628Z,17.89
2022-10-07T17:34:11.699Z,17.91
2022-10-07T17:36:39.883Z,17.79
2022-10-07T17:39:06.622Z,17.81
2022-10-07T17:41:35.077Z,17.85
2022-10-07T17:44:03.394Z,17.77
2022-10-07T17:46:32.688Z,17.79
2022-10-07T17:49:00.777Z,17.99
2022-10-07T17:51:28.973Z,17.74
2022-10-07T17:53:56.499Z,17.66
2022-10-07T17:56:23.251Z,17.39
2022-10-07T17:58:50.666Z,17.78
2022-10-07T18:01:23.976Z,17.55
2022-10-07T18:03:52.963Z,17.40
2022-10-07T18:06:20.298Z,17.76
2022-10-07T18:08:48.124Z,17.49
2022-10-07T18:11:15.842Z,17.42
2022-10-07T18:14:04.077Z,17.78
2022-10-07T18:16:34.816Z,17.42
2022-10-07T18:19:02.316Z,17.64
2022-10-07T18:21:32.163Z,17.76
2022-10-07T18:23:58.866Z,17.45
2022-10-07T18:26:25.535Z,17.23
2022-10-07T18:28:53.084Z,17.22
2022-10-07T18:31:20.555Z,17.34
2022-10-07T18:33:47.218Z,17.24
2022-10-07T18:36:16.500Z,17.52
2022-10-07T18:38:44.295Z,17.68
2022-10-07T18:41:13.685Z,17.34
2022-10-07T18:43:41.276Z,17.35
2022-10-07T18:46:10.957Z,17.06
2022-10-07T18:48:39.375Z,17.33
2022-10-07T18:51:06.935Z,17.33
2022-10-07T18:53:36.428Z,17.37
2022-10-07T18:56:05.149Z,16.88
2022-10-07T18:58:36.180Z,17.12
2022-10-07T19:01:10.461Z,17.00
2022-10-07T19:03:37.059Z,16.93
2022-10-07T19:06:10.988Z,17.15
2022-10-07T19:08:37.576Z,17.20
2022-10-07T19:11:06.017Z,17.46
2022-10-07T19:13:48.800Z,17.19
2022-10-07T19:16:36.261Z,17.06
2022-10-07T19:19:05.911Z,17.26
2022-10-07T19:21:32.866Z,17.10
2022-10-07T19:24:01.657Z,17.16
2022-10-07T19:26:36.601Z,16.80
2022-10-07T19:29:04.343Z,16.75
2022-10-07T19:31:35.072Z,17.13
2022-10-07T19:34:04.814Z,16.82
2022-10-07T19:36:34.047Z,17.02
2022-10-07T19:39:02.115Z,16.87
2022-10-07T19:41:30.250Z,17.11
2022-10-07T19:43:57.520Z,16.86
2022-10-07T19:46:26.346Z,17.00
2022-10-07T19:48:56.892Z,17.22
2022-10-07T19:51:24.205Z,16.99
2022-10-07T19:53:51.371Z,17.23
2022-10-07T19:56:20.537Z,17.06
2022-10-07T19:58:48.888Z,17.09
2022-10-07T20:01:18.563Z,17.16
2022-10-07T20:03:45.226Z,17.02
2022-10-07T20:06:13.062Z,16.94
2022-10-07T20:08:41.643Z,16.92
2022-10-07T20:11:09.110Z,16.54
2022-10-07T20:13:36.172Z,17.08
2022-10-07T20:16:10.792Z,16.85
2022-10-07T20:18:37.941Z,16.72
2022-10-07T20:21:11.138Z,17.21
2022-10-07T20:23:40.224Z,16.58
2022-10-07T20:26:08.637Z,16.88
2022-10-07T20:28:37.909Z,16.96
2022-10-07T20:31:06.011Z,17.12
2022-10-07T20:33:39.584Z,16.77
2022-10-07T20:36:06.875Z,16.77
2022-10-07T20:38:52.088Z,16.80
2022-10-07T20:41:37.182Z,16.81
2022-10-07T20:44:03.773Z,16.87
2022-10-07T20:46:30.250Z,16.60
2022-10-07T20:48:56.737Z,16.50
2022-10-07T20:51:23.265Z,16.77
2022-10-07T20:53:51.518Z,16.52
2022-10-07T20:56:18.501Z,16.81
2022-10-07T20:58:47.817Z,16.76
2022-10-07T21:01:14.571Z,16.52
2022-10-07T21:03:41.117Z,16.48
2022-10-07T21:06:07.907Z,16.50
2022-10-07T21:08:34.358Z,16.40
2022-10-07T21:11:04.821Z,16.65
2022-10-07T21:13:32.232Z,16.22
2022-10-07T21:16:02.493Z,16.79
2022-10-07T21:18:29.868Z,16.68
2022-10-07T21:20:57.115Z,16.52
2022-10-07T21:23:24.186Z,16.52
2022-10-07T21:25:51.842Z,16.90
2022-10-07T21:28:19.042Z,16.63
2022-10-07T21:30:55.033Z,16.63
2022-10-07T21:33:21.613Z,16.65
2022-10-07T21:35:48.055Z,16.39
2022-10-07T21:38:14.725Z,16.36
2022-10-07T21:40:41.162Z,16.56
2022-10-07T21:43:07.617Z,16.47
2022-10-07T21:45:34.137Z,16.00
2022-10-07T21:48:01.602Z,16.38
2022-10-07T21:50:28.038Z,16.38
2022-10-07T21:52:54.481Z,16.23
2022-10-07T21:55:20.916Z,15.97
2022-10-07T21:57:47.340Z,16.16
2022-10-07T22:00:15.945Z,16.07
2022-10-07T22:02:42.585Z,16.12
2022-10-07T22:05:11.401Z,15.71
2022-10-07T22:07:56.664Z,15.68
2022-10-07T22:10:23.089Z,15.89
2022-10-07T22:12:49.761Z,15.74
2022-10-07T22:15:17.056Z,15.71
2022-10-07T22:17:43.481Z,15.96
2022-10-07T22:20:10.040Z,15.68
2022-10-07T22:22:36.453Z,15.81
2022-10-07T22:25:03.113Z,15.52
2022-10-07T22:27:29.557Z,15.70
2022-10-07T22:29:55.997Z,15.89
2022-10-07T22:32:22.447Z,15.52
2022-10-07T22:35:07.623Z,15.19
2022-10-07T22:37:34.066Z,15.43
2022-10-07T22:40:00.539Z,15.57
2022-10-07T22:42:26.978Z,15.36
2022-10-07T22:44:53.458Z,15.01
2022-10-07T22:47:19.928Z,15.49
2022-10-07T22:49:46.439Z,15.33
2022-10-07T22:52:12.875Z,15.28
2022-10-07T22:54:40.378Z,15.37
2022-10-07T22:57:07.237Z,15.13
2022-10-07T22:59:34.353Z,15.18
2022-10-07T23:02:02.117Z,15.31
2022-10-07T23:04:28.586Z,15.44
2022-10-07T23:06:55.029Z,15.11
2022-10-07T23:09:21.533Z,15.14
2022-10-07T23:11:47.963Z,15.21
2022-10-07T23:14:14.845Z,15.26
2022-10-07T23:16:41.957Z,15.12
2022-10-07T23:19:09.214Z,15.20
2022-10-07T23:21:35.714Z,15.13
2022-10-07T23:24:07.322Z,15.08
2022-10-07T23:26:34.439Z,15.21
2022-10-07T23:29:01.054Z,15.26
2022-10-07T23:31:28.882Z,15.24
2022-10-07T23:33:56.507Z,15.09
2022-10-07T23:36:23.945Z,15.14
2022-10-07T23:38:51.146Z,15.47
2022-10-07T23:41:20.190Z,15.50
2022-10-07T23:43:54.605Z,15.37
2022-10-07T23:46:22.700Z,15.09
2022-10-07T23:48:49.684Z,15.26
2022-10-07T23:51:19.273Z,15.66
2022-10-07T23:53:46.229Z,15.28
2022-10-07T23:56:13.036Z,15.45
2022-10-07T23:58:39.717Z,15.07
